Time;durP1;ratioP1;P1;durP2;ratioP2;P2;SDS_P1;SDS_P2;PMS_P1;PMS_P2;Temp;Humidity;BMP_temperature;BMP_pressure;BME280_temperature;BME280_humidity;BME280_pressure;Samples;Min_cycle;Max_cycle;Signal;HPM_P1;HPM_P2
2021/01/23 00:02:20;;;;;;;5.55;3.63;;;1.80;99.90;;;;;;5008673;28;20121;-76
2021/01/23 00:04:45;;;;;;;6.72;3.65;;;1.90;99.90;;;;;;5009086;28;20076;-77
2021/01/23 00:07:11;;;;;;;13.13;8.57;;;2.00;99.90;;;;;;5013180;28;20026;-76
2021/01/23 00:09:37;;;;;;;8.70;5.57;;;2.10;99.90;;;;;;5015096;28;20486;-75
2021/01/23 00:12:04;;;;;;;7.32;4.85;;;2.10;99.90;;;;;;5015022;28;20108;-75
2021/01/23 00:14:30;;;;;;;9.13;5.55;;;2.10;99.90;;;;;;5014893;28;20149;-76
2021/01/23 00:16:56;;;;;;;8.32;5.07;;;2.00;99.90;;;;;;5014942;28;20042;-75
2021/01/23 00:19:21;;;;;;;8.27;5.88;;;1.90;99.90;;;;;;5014933;28;20018;-76
2021/01/23 00:21:47;;;;;;;8.98;5.22;;;2.00;99.90;;;;;;5014976;28;20096;-76
2021/01/23 00:24:13;;;;;;;8.95;4.95;;;1.90;99.90;;;;;;5013328;28;20084;-75
2021/01/23 00:26:42;;;;;;;8.52;5.50;;;2.00;99.90;;;;;;5014886;28;20018;-75
2021/01/23 00:29:07;;;;;;;11.68;6.30;;;2.10;99.90;;;;;;5014760;28;20034;-76
2021/01/23 00:31:33;;;;;;;9.25;5.15;;;1.80;99.90;;;;;;5014157;28;20099;-76
2021/01/23 00:33:59;;;;;;;9.40;5.88;;;1.80;99.90;;;;;;5014627;28;20061;-76
2021/01/23 00:36:24;;;;;;;7.18;4.53;;;1.80;99.90;;;;;;5014906;28;20421;-76
2021/01/23 00:38:50;;;;;;;5.55;3.85;;;1.80;99.90;;;;;;5014663;28;20041;-76
2021/01/23 00:41:16;;;;;;;8.25;4.65;;;1.90;99.90;;;;;;5014391;28;20117;-75
2021/01/23 00:43:41;;;;;;;28.05;10.65;;;2.00;99.90;;;;;;5014203;28;20038;-76
2021/01/23 00:46:07;;;;;;;10.48;4.28;;;2.00;99.90;;;;;;5014279;28;20107;-76
2021/01/23 00:48:33;;;;;;;22.00;10.88;;;2.00;99.90;;;;;;5013745;28;20040;-76
2021/01/23 00:50:58;;;;;;;17.25;8.55;;;2.00;99.90;;;;;;5014411;28;20026;-75
2021/01/23 00:53:24;;;;;;;8.15;5.13;;;1.90;99.90;;;;;;5014202;28;20100;-75
2021/01/23 00:55:50;;;;;;;7.43;4.75;;;1.90;99.90;;;;;;5014427;28;20385;-76
2021/01/23 00:58:15;;;;;;;8.02;4.72;;;1.90;99.90;;;;;;5014438;28;20104;-75
2021/01/23 01:00:42;;;;;;;8.45;4.50;;;1.90;99.90;;;;;;5013806;28;20088;-76
2021/01/23 01:03:07;;;;;;;7.00;3.50;;;1.90;99.90;;;;;;5014123;28;20485;-77
2021/01/23 01:05:33;;;;;;;9.02;4.40;;;2.00;99.90;;;;;;5013867;28;20134;-76
2021/01/23 01:07:59;;;;;;;6.60;3.63;;;1.90;99.90;;;;;;5013941;28;20443;-77
2021/01/23 01:10:25;;;;;;;8.60;4.97;;;1.90;99.90;;;;;;5013897;28;20037;-76
2021/01/23 01:12:50;;;;;;;7.55;4.90;;;2.00;99.90;;;;;;5013508;28;20476;-76
2021/01/23 01:15:16;;;;;;;6.38;4.35;;;2.00;99.90;;;;;;5013712;28;20026;-76
2021/01/23 01:17:42;;;;;;;6.25;3.85;;;2.00;99.90;;;;;;5013519;28;20040;-76
2021/01/23 01:20:09;;;;;;;9.48;5.65;;;2.10;99.90;;;;;;5013721;28;20025;-76
2021/01/23 01:22:35;;;;;;;27.88;8.27;;;2.00;99.90;;;;;;5013537;28;20033;-75
2021/01/23 01:25:01;;;;;;;9.40;5.70;;;1.80;99.90;;;;;;5013812;28;20025;-76
2021/01/23 01:27:26;;;;;;;9.68;5.47;;;1.70;99.90;;;;;;5013569;28;20374;-75
2021/01/23 01:29:52;;;;;;;11.10;6.40;;;1.60;99.90;;;;;;5013266;28;20052;-76
2021/01/23 01:32:18;;;;;;;7.93;5.20;;;1.70;99.90;;;;;;5013559;28;20369;-75
2021/01/23 01:34:44;;;;;;;8.15;4.85;;;1.70;99.90;;;;;;5013505;28;20410;-76
2021/01/23 01:37:10;;;;;;;7.22;3.78;;;1.60;99.90;;;;;;5013469;28;20043;-76
2021/01/23 01:39:35;;;;;;;6.93;3.97;;;1.80;99.90;;;;;;5013174;28;20073;-76
2021/01/23 01:42:04;;;;;;;5.50;3.40;;;1.80;99.90;;;;;;5013212;28;20452;-76
2021/01/23 01:44:30;;;;;;;6.93;4.38;;;1.90;99.90;;;;;;5013099;28;20480;-76
2021/01/23 01:46:59;;;;;;;7.18;4.68;;;1.90;99.90;;;;;;5013059;28;20027;-77
2021/01/23 01:49:25;;;;;;;6.22;3.83;;;1.90;99.90;;;;;;5013162;28;20022;-76
2021/01/23 01:51:55;;;;;;;7.45;3.85;;;1.80;99.90;;;;;;5013099;28;20506;-75
2021/01/23 01:54:23;;;;;;;6.28;3.65;;;1.90;99.90;;;;;;5012900;28;20110;-75
2021/01/23 01:56:48;;;;;;;5.07;3.25;;;2.00;99.90;;;;;;5012924;28;20030;-75
2021/01/23 01:59:14;;;;;;;10.13;6.70;;;1.90;99.90;;;;;;5013051;28;20088;-76
2021/01/23 02:01:40;;;;;;;7.32;5.38;;;2.00;99.90;;;;;;5011800;28;20026;-76
2021/01/23 02:04:19;;;;;;;6.22;4.18;;;1.90;99.90;;;;;;5012758;28;20037;-76
2021/01/23 02:07:11;;;;;;;6.72;4.43;;;1.90;99.90;;;;;;5012879;28;20357;-76
2021/01/23 02:09:49;;;;;;;8.10;4.90;;;1.90;99.90;;;;;;5012674;28;20057;-75
2021/01/23 02:12:39;;;;;;;7.85;4.93;;;1.90;99.90;;;;;;5012705;28;20100;-76
2021/01/23 02:15:10;;;;;;;10.43;5.40;;;1.90;99.90;;;;;;5012754;28;20065;-76
2021/01/23 02:17:52;;;;;;;7.32;4.88;;;1.90;99.90;;;;;;5012720;28;20033;-75
2021/01/23 02:20:45;;;;;;;7.72;5.28;;;1.80;99.90;;;;;;5012635;28;20143;-76
2021/01/23 02:23:45;;;;;;;8.38;4.40;;;1.80;99.90;;;;;;5012643;28;20077;-76
2021/01/23 02:26:27;;;;;;;6.85;4.10;;;1.80;99.90;;;;;;5012898;28;20018;-79
2021/01/23 02:29:20;;;;;;;6.88;3.78;;;1.90;99.90;;;;;;5012608;28;20030;-76
2021/01/23 02:31:50;;;;;;;7.25;4.72;;;1.90;99.90;;;;;;5012348;28;20555;-76
2021/01/23 02:34:20;;;;;;;7.88;4.68;;;1.90;99.90;;;;;;5012314;28;20030;-75
2021/01/23 02:36:47;;;;;;;9.20;5.70;;;1.90;99.90;;;;;;5012397;28;20492;-77
2021/01/23 02:39:16;;;;;;;7.03;4.47;;;1.90;99.90;;;;;;5012655;28;20366;-76
2021/01/23 02:41:43;;;;;;;6.93;4.63;;;1.80;99.90;;;;;;5012101;28;20472;-76
2021/01/23 02:44:09;;;;;;;7.70;4.90;;;1.80;99.90;;;;;;5012188;28;20026;-75
2021/01/23 02:46:35;;;;;;;7.10;4.60;;;1.90;99.90;;;;;;5012253;28;20551;-75
2021/01/23 02:49:01;;;;;;;6.55;3.83;;;1.80;99.90;;;;;;5012065;28;20033;-76
2021/01/23 02:51:44;;;;;;;6.60;3.63;;;1.90;99.90;;;;;;5012084;28;20100;-76
2021/01/23 02:54:23;;;;;;;7.82;3.38;;;2.00;99.90;;;;;;5011791;28;20025;-75
2021/01/23 02:56:49;;;;;;;4.85;3.03;;;2.00;99.90;;;;;;5011978;28;20022;-75
2021/01/23 02:59:16;;;;;;;4.90;3.13;;;2.00;99.90;;;;;;5012209;28;20109;-76
2021/01/23 03:01:43;;;;;;;4.40;2.45;;;2.00;99.90;;;;;;5011639;28;20546;-76
2021/01/23 03:04:10;;;;;;;5.93;2.95;;;2.10;99.90;;;;;;5011738;28;20113;-76
2021/01/23 03:06:39;;;;;;;5.22;3.08;;;2.20;99.90;;;;;;5011616;28;20436;-76
2021/01/23 03:09:21;;;;;;;4.60;2.85;;;2.20;99.90;;;;;;5011646;28;20030;-76
2021/01/23 03:11:48;;;;;;;5.45;3.10;;;2.10;99.90;;;;;;5011699;28;20049;-76
2021/01/23 03:14:14;;;;;;;4.22;2.85;;;2.10;99.90;;;;;;5011632;28;20092;-76
2021/01/23 03:16:53;;;;;;;4.63;3.10;;;2.10;99.90;;;;;;5011767;28;20496;-76
2021/01/23 03:19:19;;;;;;;8.65;3.25;;;2.10;99.90;;;;;;5011694;28;20389;-76
2021/01/23 03:21:49;;;;;;;4.72;3.03;;;2.10;99.90;;;;;;5011573;28;20030;-76
2021/01/23 03:24:16;;;;;;;454.13;61.45;;;2.10;99.90;;;;;;5011601;28;20083;-76
2021/01/23 03:26:43;;;;;;;56.53;10.00;;;2.00;99.90;;;;;;5011566;28;20108;-76
2021/01/23 03:29:09;;;;;;;25.50;7.15;;;1.80;99.90;;;;;;5011592;28;20019;-76
2021/01/23 03:31:35;;;;;;;31.52;8.23;;;1.80;99.90;;;;;;5011202;28;20076;-75
2021/01/23 03:34:02;;;;;;;7.97;4.50;;;1.80;99.90;;;;;;5011628;28;20032;-76
2021/01/23 03:36:27;;;;;;;4.45;2.60;;;1.80;99.90;;;;;;5011576;28;20030;-76
2021/01/23 03:38:53;;;;;;;4.68;2.60;;;1.80;99.90;;;;;;5011473;28;20029;-76
2021/01/23 03:41:19;;;;;;;5.20;2.47;;;1.90;99.90;;;;;;5011406;28;20069;-76
2021/01/23 03:43:45;;;;;;;4.20;2.03;;;2.10;99.90;;;;;;5011715;28;20084;-76
2021/01/23 03:46:11;;;;;;;3.53;1.83;;;2.20;99.90;;;;;;5011581;28;20076;-76
2021/01/23 03:48:38;;;;;;;3.47;1.80;;;2.30;99.90;;;;;;5011831;28;20092;-76
2021/01/23 03:51:04;;;;;;;3.05;1.70;;;2.30;99.90;;;;;;5011497;28;20080;-76
2021/01/23 03:53:30;;;;;;;4.18;2.28;;;2.40;99.90;;;;;;5011315;28;20057;-75
2021/01/23 03:55:56;;;;;;;5.55;3.45;;;2.30;99.90;;;;;;5011410;28;20527;-76
2021/01/23 03:58:21;;;;;;;5.95;3.35;;;2.30;99.90;;;;;;5011792;28;20030;-76
2021/01/23 04:00:47;;;;;;;6.22;3.33;;;2.20;99.90;;;;;;5011297;28;20711;-75
2021/01/23 04:03:14;;;;;;;6.25;4.18;;;2.00;99.90;;;;;;4999655;28;20025;-80
2021/01/23 04:05:39;;;;;;;7.97;4.03;;;2.10;99.90;;;;;;4983416;28;20443;-78
2021/01/23 04:08:06;;;;;;;6.20;3.60;;;2.20;99.90;;;;;;4983716;28;20127;-78
2021/01/23 04:10:32;;;;;;;6.32;3.05;;;2.10;99.90;;;;;;4983255;28;20432;-77
2021/01/23 04:12:57;;;;;;;5.10;2.42;;;2.00;99.90;;;;;;4982803;28;20030;-78
2021/01/23 04:15:23;;;;;;;4.07;2.38;;;1.90;99.90;;;;;;4983281;28;20033;-78
2021/01/23 04:17:50;;;;;;;5.13;2.67;;;2.00;99.90;;;;;;4982798;28;20062;-78
2021/01/23 04:20:16;;;;;;;4.30;2.30;;;2.00;99.90;;;;;;4983291;28;20029;-78
2021/01/23 04:22:42;;;;;;;5.35;2.08;;;2.00;99.90;;;;;;4983316;28;20027;-76
2021/01/23 04:25:08;;;;;;;4.15;1.95;;;2.10;99.90;;;;;;4985860;28;20033;-77
2021/01/23 04:27:34;;;;;;;4.80;2.50;;;2.10;99.90;;;;;;4986925;28;20222;-77
2021/01/23 04:30:00;;;;;;;4.43;2.47;;;2.10;99.90;;;;;;4987239;28;20137;-77
2021/01/23 04:32:26;;;;;;;6.72;2.97;;;2.10;99.90;;;;;;4987380;28;20273;-77
2021/01/23 04:34:52;;;;;;;5.95;3.40;;;2.20;99.90;;;;;;4986969;28;20026;-77
2021/01/23 04:37:19;;;;;;;5.75;3.30;;;2.20;99.90;;;;;;4987019;28;20551;-79
2021/01/23 04:39:45;;;;;;;5.75;2.80;;;2.20;99.90;;;;;;4986963;28;20026;-77
2021/01/23 04:42:11;;;;;;;5.28;2.83;;;2.20;99.90;;;;;;4986681;28;20185;-77
2021/01/23 04:44:37;;;;;;;4.78;2.35;;;2.10;99.90;;;;;;4985052;28;20085;-77
2021/01/23 04:47:04;;;;;;;6.00;2.55;;;2.10;99.90;;;;;;4986597;28;20482;-77
2021/01/23 04:49:31;;;;;;;4.65;2.70;;;2.10;99.90;;;;;;4986557;28;20261;-76
2021/01/23 04:51:57;;;;;;;4.43;2.38;;;2.10;99.90;;;;;;4986951;28;20041;-77
2021/01/23 04:54:23;;;;;;;7.50;2.90;;;2.10;99.90;;;;;;4987706;28;20022;-76
2021/01/23 04:56:52;;;;;;;3.88;2.00;;;2.20;99.90;;;;;;4986158;28;20536;-78
2021/01/23 04:59:18;;;;;;;7.25;2.67;;;2.20;99.90;;;;;;4986293;28;20034;-81
2021/01/23 05:01:43;;;;;;;4.47;2.40;;;2.20;99.90;;;;;;4986282;28;20674;-77
2021/01/23 05:04:09;;;;;;;4.28;2.47;;;2.10;99.90;;;;;;4986391;28;20088;-77
2021/01/23 05:06:35;;;;;;;4.68;2.28;;;2.10;99.90;;;;;;4986332;28;20568;-77
2021/01/23 05:09:00;;;;;;;3.60;2.10;;;2.10;99.90;;;;;;4986227;28;20080;-78
2021/01/23 05:11:49;;;;;;;3.28;1.90;;;2.10;99.90;;;;;;4986313;28;20385;-78
2021/01/23 05:14:15;;;;;;;3.25;1.67;;;2.30;99.90;;;;;;4986122;28;20401;-77
2021/01/23 05:16:41;;;;;;;4.28;1.85;;;2.40;99.90;;;;;;4985957;28;20034;-76
2021/01/23 05:19:08;;;;;;;3.67;1.55;;;2.50;99.90;;;;;;4986151;28;20026;-79
2021/01/23 05:21:34;;;;;;;2.08;1.05;;;2.50;99.90;;;;;;4985467;28;20045;-77
2021/01/23 05:24:09;;;;;;;2.33;1.10;;;2.50;99.90;;;;;;4985656;28;20080;-78
2021/01/23 05:26:36;;;;;;;2.33;1.15;;;2.50;99.90;;;;;;4985728;28;20054;-76
2021/01/23 05:29:13;;;;;;;4.72;2.78;;;2.50;99.90;;;;;;4985899;28;20033;-77
2021/01/23 05:31:40;;;;;;;3.60;2.13;;;2.40;99.90;;;;;;4984257;28;20105;-77
2021/01/23 05:34:29;;;;;;;10.30;6.70;;;2.40;99.90;;;;;;4985651;28;20022;-77
2021/01/23 05:36:56;;;;;;;9.20;5.57;;;2.30;99.90;;;;;;4979784;28;20034;-76
2021/01/23 05:39:47;;;;;;;14.80;5.80;;;2.10;99.90;;;;;;4986484;28;20068;-80
2021/01/23 05:42:13;;;;;;;17.38;9.45;;;2.00;99.90;;;;;;4986336;28;20108;-76
2021/01/23 05:44:39;;;;;;;21.45;10.65;;;2.10;99.90;;;;;;4986307;28;20030;-76
2021/01/23 05:47:24;;;;;;;31.70;16.80;;;2.00;99.90;;;;;;4986147;28;20034;-76
2021/01/23 05:49:52;;;;;;;11.00;5.72;;;1.90;99.90;;;;;;4985936;28;20030;-77
2021/01/23 05:52:17;;;;;;;7.07;4.25;;;1.80;99.90;;;;;;4985591;28;20113;-77
2021/01/23 05:54:43;;;;;;;5.93;3.90;;;2.00;99.90;;;;;;4985959;28;20160;-76
2021/01/23 05:57:10;;;;;;;6.32;3.50;;;2.10;99.90;;;;;;4986334;28;20034;-76
2021/01/23 05:59:36;;;;;;;7.15;3.53;;;2.20;99.90;;;;;;4986631;28;20031;-78
2021/01/23 06:02:04;;;;;;;11.43;6.30;;;2.10;99.90;;;;;;4986214;28;20035;-76
2021/01/23 06:04:31;;;;;;;5.75;3.97;;;2.10;99.90;;;;;;4986389;28;20525;-77
2021/01/23 06:06:56;;;;;;;7.22;4.45;;;2.10;99.90;;;;;;4986374;28;20034;-77
2021/01/23 06:09:39;;;;;;;4.93;3.00;;;2.10;99.90;;;;;;4985666;28;20508;-77
2021/01/23 06:12:25;;;;;;;5.80;3.08;;;2.00;99.90;;;;;;4985560;28;20065;-77
2021/01/23 06:14:51;;;;;;;7.07;3.88;;;2.10;99.90;;;;;;4984951;28;20385;-76
2021/01/23 06:17:54;;;;;;;6.22;4.15;;;2.10;99.90;;;;;;4985093;28;20018;-77
2021/01/23 06:20:42;;;;;;;4.28;2.42;;;2.10;99.90;;;;;;4984827;28;20026;-76
2021/01/23 06:23:11;;;;;;;4.72;2.88;;;2.10;99.90;;;;;;4985612;28;20030;-78
2021/01/23 06:25:49;;;;;;;9.50;2.47;;;2.10;99.90;;;;;;4985714;28;20022;-77
2021/01/23 06:28:21;;;;;;;4.50;2.15;;;2.10;99.90;;;;;;4984984;28;20023;-77
2021/01/23 06:30:47;;;;;;;3.40;1.90;;;2.20;99.90;;;;;;4984245;28;20054;-76
2021/01/23 06:33:22;;;;;;;5.07;2.72;;;2.30;99.90;;;;;;4984752;28;20389;-77
2021/01/23 06:36:06;;;;;;;;;;;2.30;99.90;;;;;;4984846;28;20030;-76
2021/01/23 06:38:33;;;;;;;7.93;4.30;;;2.30;99.90;;;;;;4984526;28;19909;-77
2021/01/23 06:41:32;;;;;;;5.13;2.78;;;2.20;99.90;;;;;;4984686;28;20500;-76
2021/01/23 06:44:06;;;;;;;5.10;2.92;;;2.20;99.90;;;;;;4984707;28;20030;-76
2021/01/23 06:46:33;;;;;;;5.88;3.67;;;2.20;99.90;;;;;;4984265;28;20105;-77
2021/01/23 06:49:04;;;;;;;7.57;4.70;;;2.10;99.90;;;;;;4984892;28;20458;-77
2021/01/23 06:51:29;;;;;;;8.25;4.85;;;2.00;99.90;;;;;;4984590;28;20034;-77
2021/01/23 06:54:14;;;;;;;7.32;5.07;;;2.10;99.90;;;;;;4984982;28;20445;-77
2021/01/23 06:56:47;;;;;;;6.78;4.82;;;2.10;99.90;;;;;;4984932;28;20537;-77
2021/01/23 06:59:29;;;;;;;6.65;3.78;;;2.10;99.90;;;;;;4984326;28;20030;-77
2021/01/23 07:02:04;;;;;;;8.68;3.67;;;2.10;99.90;;;;;;4982895;28;20040;-77
2021/01/23 07:04:56;;;;;;;6.20;3.05;;;2.10;99.90;;;;;;4984036;28;20389;-79
2021/01/23 07:07:23;;;;;;;6.38;3.63;;;2.20;99.90;;;;;;4982328;28;20058;-76
2021/01/23 07:09:56;;;;;;;11.27;5.95;;;2.10;99.90;;;;;;4984811;28;20478;-79
2021/01/23 07:12:46;;;;;;;7.82;5.22;;;2.00;99.90;;;;;;4999751;28;20030;-77
2021/01/23 07:15:12;;;;;;;6.78;5.07;;;2.00;99.90;;;;;;4984947;28;20022;-75
2021/01/23 07:17:40;;;;;;;7.60;4.65;;;2.10;99.90;;;;;;4984244;28;20026;-77
2021/01/23 07:20:09;;;;;;;8.05;5.60;;;2.10;99.90;;;;;;4984158;28;20022;-78
2021/01/23 07:22:39;;;;;;;7.55;5.00;;;2.10;99.90;;;;;;4984184;28;20090;-77
2021/01/23 07:25:07;;;;;;;6.88;4.55;;;2.10;99.90;;;;;;4984259;28;20046;-77
2021/01/23 07:27:36;;;;;;;7.07;4.72;;;2.10;99.90;;;;;;4984439;28;20492;-77
2021/01/23 07:30:16;;;;;;;6.70;4.60;;;2.10;99.90;;;;;;4982927;28;20065;-77
2021/01/23 07:32:44;;;;;;;6.47;4.20;;;2.10;99.90;;;;;;4983558;28;20049;-76
2021/01/23 07:35:10;;;;;;;5.75;3.55;;;2.10;99.90;;;;;;4984353;28;20034;-79
2021/01/23 07:37:50;;;;;;;6.43;3.80;;;2.10;99.90;;;;;;4983952;28;20026;-77
2021/01/23 07:40:36;;;;;;;6.03;3.63;;;2.20;99.90;;;;;;4983680;28;20084;-76
2021/01/23 07:43:04;;;;;;;6.18;3.50;;;2.30;99.90;;;;;;4983860;28;20036;-78
2021/01/23 07:45:30;;;;;;;5.97;2.83;;;2.40;99.90;;;;;;4983660;28;20058;-76
2021/01/23 07:47:56;;;;;;;4.07;2.45;;;2.50;99.90;;;;;;4983733;28;20061;-78
2021/01/23 07:50:22;;;;;;;6.90;2.85;;;2.60;99.90;;;;;;4984470;28;20037;-81
2021/01/23 07:52:48;;;;;;;3.60;2.08;;;2.60;99.90;;;;;;4983419;28;20029;-77
2021/01/23 07:55:14;;;;;;;3.50;1.83;;;2.60;99.90;;;;;;4983712;28;20022;-76
2021/01/23 07:57:40;;;;;;;3.58;2.20;;;2.70;99.90;;;;;;4983776;28;20481;-77
2021/01/23 08:00:07;;;;;;;3.78;1.92;;;2.60;99.90;;;;;;4986982;28;20034;-76
2021/01/23 08:02:54;;;;;;;3.33;1.80;;;2.50;99.90;;;;;;4987416;28;20084;-80
2021/01/23 08:05:20;;;;;;;2.60;1.33;;;2.50;99.90;;;;;;4987627;28;20054;-77
2021/01/23 08:07:46;;;;;;;3.55;1.77;;;2.60;99.90;;;;;;4987368;28;20069;-77
2021/01/23 08:10:20;;;;;;;3.33;1.83;;;2.60;99.90;;;;;;4987479;28;20096;-76
2021/01/23 08:13:03;;;;;;;3.15;1.73;;;2.70;99.90;;;;;;4987337;28;20022;-78
2021/01/23 08:15:36;;;;;;;3.22;1.80;;;2.70;99.90;;;;;;4987406;28;20030;-79
2021/01/23 08:18:23;;;;;;;3.75;1.88;;;2.70;99.90;;;;;;4987552;28;20189;-79
2021/01/23 08:20:49;;;;;;;3.40;1.75;;;2.70;99.90;;;;;;4986933;28;20038;-77
2021/01/23 08:23:16;;;;;;;3.88;2.00;;;2.60;99.90;;;;;;4987005;28;20036;-78
2021/01/23 08:25:44;;;;;;;3.95;2.35;;;2.60;99.90;;;;;;4986588;28;20030;-78
2021/01/23 08:28:11;;;;;;;4.28;2.58;;;2.70;99.90;;;;;;4986862;28;20092;-77
2021/01/23 08:30:38;;;;;;;4.90;2.17;;;2.50;99.90;;;;;;4986478;28;20521;-77
2021/01/23 08:33:08;;;;;;;3.70;1.95;;;2.50;99.90;;;;;;4987172;28;20033;-78
2021/01/23 08:35:39;;;;;;;3.78;2.38;;;2.50;99.90;;;;;;4987096;28;20117;-77
2021/01/23 08:38:05;;;;;;;3.97;2.00;;;2.50;99.90;;;;;;4986848;28;20061;-76
2021/01/23 08:40:31;;;;;;;7.40;1.83;;;2.70;99.90;;;;;;4986709;28;20264;-77
2021/01/23 08:42:57;;;;;;;4.43;2.30;;;2.80;99.90;;;;;;4987031;28;20280;-77
2021/01/23 08:45:25;;;;;;;3.60;1.80;;;2.80;99.90;;;;;;4987131;28;20030;-78
2021/01/23 08:47:51;;;;;;;3.55;1.70;;;2.90;99.90;;;;;;4987047;28;20117;-79
2021/01/23 08:50:17;;;;;;;3.47;1.75;;;3.00;99.90;;;;;;4986699;28;20117;-81
2021/01/23 08:52:43;;;;;;;2.60;1.40;;;3.00;99.90;;;;;;4986830;28;20023;-77
2021/01/23 08:55:09;;;;;;;3.78;1.80;;;3.00;99.90;;;;;;4987014;28;20026;-80
2021/01/23 08:57:35;;;;;;;2.67;1.40;;;3.10;99.90;;;;;;4986841;28;20038;-78
2021/01/23 09:00:01;;;;;;;2.95;1.42;;;3.30;99.90;;;;;;4987422;28;20029;-77
2021/01/23 09:02:27;;;;;;;3.75;2.15;;;3.30;99.90;;;;;;4987221;28;20080;-77
2021/01/23 09:04:53;;;;;;;2.78;1.55;;;3.30;99.90;;;;;;4986914;28;20029;-77
2021/01/23 09:07:19;;;;;;;2.60;1.35;;;3.20;99.90;;;;;;4987305;28;20509;-81
2021/01/23 09:09:47;;;;;;;2.95;1.27;;;3.20;99.90;;;;;;4986423;28;20027;-77
2021/01/23 09:12:12;;;;;;;3.25;1.52;;;3.30;99.90;;;;;;4986568;28;20097;-78
2021/01/23 09:14:38;;;;;;;2.20;1.20;;;3.30;99.90;;;;;;4986391;28;20042;-76
2021/01/23 09:17:05;;;;;;;2.90;1.17;;;3.40;99.90;;;;;;4986511;28;20042;-77
2021/01/23 09:19:30;;;;;;;2.63;1.02;;;3.40;99.90;;;;;;4986400;28;20045;-82
2021/01/23 09:21:56;;;;;;;2.75;1.33;;;3.40;99.90;;;;;;4986279;28;20038;-83
2021/01/23 09:24:22;;;;;;;2.60;1.40;;;3.40;99.90;;;;;;4986623;28;20154;-77
2021/01/23 09:26:47;;;;;;;2.58;1.10;;;3.30;99.90;;;;;;4986201;28;20544;-78
2021/01/23 09:29:13;;;;;;;2.25;1.20;;;3.40;99.90;;;;;;4986096;28;20436;-77
2021/01/23 09:31:39;;;;;;;2.20;1.17;;;3.50;99.90;;;;;;4985961;28;20468;-77
2021/01/23 09:34:06;;;;;;;1.92;1.23;;;3.60;99.90;;;;;;4986814;28;20026;-78
2021/01/23 09:36:32;;;;;;;1.98;1.08;;;3.70;99.90;;;;;;4986384;28;20081;-78
2021/01/23 09:38:58;;;;;;;1.90;0.80;;;3.80;99.90;;;;;;4986647;28;20050;-78
2021/01/23 09:41:24;;;;;;;3.47;1.10;;;3.80;99.90;;;;;;4986203;28;20117;-78
2021/01/23 09:43:50;;;;;;;1.75;0.93;;;3.90;99.90;;;;;;4986043;28;20038;-76
2021/01/23 09:46:15;;;;;;;1.42;0.60;;;3.80;99.90;;;;;;4986161;28;20092;-78
2021/01/23 09:48:41;;;;;;;5.82;1.73;;;3.90;99.90;;;;;;4986107;28;20019;-77
2021/01/23 09:51:07;;;;;;;1.90;0.88;;;3.90;99.90;;;;;;4986591;28;20022;-76
2021/01/23 09:53:33;;;;;;;3.10;1.50;;;3.90;99.90;;;;;;4986139;28;20038;-77
2021/01/23 09:55:58;;;;;;;1.95;0.93;;;3.90;99.90;;;;;;4985942;28;20186;-80
2021/01/23 09:58:24;;;;;;;2.42;0.80;;;3.90;99.90;;;;;;4985992;28;20037;-78
2021/01/23 10:00:50;;;;;;;1.50;0.80;;;3.90;99.90;;;;;;4986283;28;20173;-78
2021/01/23 10:03:16;;;;;;;1.33;0.57;;;3.90;99.90;;;;;;4985642;28;20109;-78
2021/01/23 10:05:41;;;;;;;1.33;0.75;;;4.10;99.90;;;;;;4985453;28;20029;-81
2021/01/23 10:08:07;;;;;;;1.63;0.63;;;4.10;99.90;;;;;;5000661;28;20026;-77
2021/01/23 10:10:33;;;;;;;1.80;0.60;;;4.20;99.90;;;;;;4985702;28;20027;-77
2021/01/23 10:12:59;;;;;;;1.23;0.52;;;4.30;99.90;;;;;;4985580;28;20437;-79
2021/01/23 10:15:25;;;;;;;1.45;0.73;;;4.40;99.90;;;;;;4985464;28;20037;-78
2021/01/23 10:17:51;;;;;;;3.03;0.60;;;4.60;99.90;;;;;;4985202;28;20035;-77
2021/01/23 10:20:17;;;;;;;0.82;0.45;;;4.70;99.90;;;;;;4986209;28;20019;-76
2021/01/23 10:22:42;;;;;;;2.67;0.55;;;4.70;99.90;;;;;;4985353;28;20034;-77
2021/01/23 10:25:08;;;;;;;4.38;0.85;;;4.70;99.90;;;;;;4985468;28;20033;-81
2021/01/23 10:27:35;;;;;;;2.38;1.00;;;4.60;99.90;;;;;;4985559;28;20030;-78
2021/01/23 10:30:03;;;;;;;2.85;0.60;;;4.50;99.90;;;;;;4984887;28;20129;-78
2021/01/23 10:32:29;;;;;;;1.75;0.75;;;4.70;99.90;;;;;;4983620;28;20125;-77
2021/01/23 10:34:54;;;;;;;1.65;0.77;;;4.60;99.90;;;;;;4985308;28;20105;-78
2021/01/23 10:37:20;;;;;;;2.47;1.00;;;4.70;99.90;;;;;;4985548;28;20350;-77
2021/01/23 10:39:46;;;;;;;1.35;0.80;;;4.70;99.90;;;;;;4985403;28;20030;-77
2021/01/23 10:42:12;;;;;;;2.13;0.90;;;4.90;99.90;;;;;;4985539;28;20579;-77
2021/01/23 10:44:40;;;;;;;3.17;1.10;;;4.80;99.90;;;;;;4985709;28;20037;-77
2021/01/23 10:47:11;;;;;;;2.40;0.90;;;4.90;99.90;;;;;;4985039;28;20023;-77
2021/01/23 10:49:37;;;;;;;1.67;0.93;;;4.90;99.90;;;;;;4984624;28;20026;-78
2021/01/23 10:52:03;;;;;;;2.10;0.95;;;5.00;99.90;;;;;;4985261;28;20389;-79
2021/01/23 10:54:28;;;;;;;1.80;1.05;;;5.00;99.90;;;;;;4984695;28;20026;-80
2021/01/23 10:56:54;;;;;;;2.20;1.10;;;4.90;99.90;;;;;;4984436;28;20488;-78
2021/01/23 10:59:20;;;;;;;0.95;0.60;;;5.00;99.90;;;;;;4984772;28;20609;-77
2021/01/23 11:01:48;;;;;;;2.08;0.95;;;5.00;99.90;;;;;;4983862;28;20184;-78
2021/01/23 11:04:15;;;;;;;2.55;1.02;;;5.00;99.90;;;;;;4984635;28;20033;-77
2021/01/23 11:06:41;;;;;;;2.42;0.75;;;5.10;99.90;;;;;;4984047;28;20050;-83
2021/01/23 11:09:08;;;;;;;2.15;1.00;;;5.00;99.90;;;;;;4984709;28;20497;-78
2021/01/23 11:11:34;;;;;;;1.25;0.70;;;5.00;99.90;;;;;;4984209;28;20029;-77
2021/01/23 11:14:00;;;;;;;1.55;0.70;;;5.20;99.90;;;;;;4984496;28;20054;-78
2021/01/23 11:16:26;;;;;;;1.35;0.63;;;5.20;99.90;;;;;;4984723;28;20033;-78
2021/01/23 11:18:52;;;;;;;1.20;0.68;;;5.20;99.90;;;;;;4984072;28;20507;-78
2021/01/23 11:21:18;;;;;;;2.20;0.98;;;5.30;99.90;;;;;;4984669;28;20618;-78
2021/01/23 11:23:44;;;;;;;2.40;1.00;;;5.20;99.90;;;;;;4984192;28;20525;-78
2021/01/23 11:26:10;;;;;;;2.60;1.02;;;5.10;99.90;;;;;;4984111;28;20033;-78
2021/01/23 11:28:36;;;;;;;1.92;0.80;;;5.30;99.90;;;;;;4983921;28;20030;-77
2021/01/23 11:31:02;;;;;;;1.08;0.50;;;5.10;99.90;;;;;;4984151;28;20066;-79
2021/01/23 11:33:28;;;;;;;1.25;0.70;;;5.10;99.90;;;;;;4986372;28;20026;-78
2021/01/23 11:35:54;;;;;;;1.33;0.57;;;5.10;99.90;;;;;;4987879;28;20389;-81
2021/01/23 11:38:20;;;;;;;1.50;0.60;;;4.80;99.90;;;;;;4988347;28;20034;-78
2021/01/23 11:40:45;;;;;;;4.13;0.77;;;5.10;99.90;;;;;;4988070;28;20097;-80
2021/01/23 11:43:12;;;;;;;1.13;0.47;;;5.20;99.90;;;;;;4988204;28;20163;-76
2021/01/23 11:45:38;;;;;;;4.13;0.60;;;5.10;99.90;;;;;;4986839;28;20034;-77
2021/01/23 11:48:04;;;;;;;2.33;1.02;;;5.40;99.90;;;;;;4988069;28;20496;-78
2021/01/23 11:50:30;;;;;;;1.08;0.43;;;5.40;99.90;;;;;;4987477;28;20042;-78
2021/01/23 11:52:56;;;;;;;1.52;0.70;;;5.60;99.90;;;;;;4987860;28;20032;-77
2021/01/23 11:55:22;;;;;;;0.75;0.30;;;5.70;99.90;;;;;;4987860;28;20023;-78
2021/01/23 11:57:48;;;;;;;1.42;0.57;;;5.70;99.90;;;;;;4987517;28;20030;-80
2021/01/23 12:00:14;;;;;;;1.58;0.63;;;5.80;99.90;;;;;;4988024;28;20088;-77
2021/01/23 12:02:40;;;;;;;0.93;0.47;;;5.80;99.90;;;;;;4987752;28;20389;-79
2021/01/23 12:05:07;;;;;;;1.27;0.60;;;5.90;99.90;;;;;;4987352;28;20022;-79
2021/01/23 12:07:33;;;;;;;3.53;1.50;;;5.90;99.90;;;;;;4987875;28;20027;-79
2021/01/23 12:09:58;;;;;;;3.45;0.50;;;5.90;99.90;;;;;;4987474;28;20084;-82
2021/01/23 12:12:24;;;;;;;1.42;0.82;;;5.90;99.90;;;;;;4987601;28;20264;-77
2021/01/23 12:14:50;;;;;;;1.02;0.57;;;5.90;99.90;;;;;;4987277;28;20038;-79
2021/01/23 12:17:16;;;;;;;1.25;0.70;;;5.90;99.90;;;;;;4987059;28;20030;-79
2021/01/23 12:19:42;;;;;;;3.88;1.38;;;6.10;99.90;;;;;;4987284;28;20022;-79
2021/01/23 12:22:12;;;;;;;2.72;1.25;;;6.10;99.90;;;;;;4987595;28;20030;-78
2021/01/23 12:24:38;;;;;;;2.60;0.77;;;6.10;99.90;;;;;;4987704;28;20401;-78
2021/01/23 12:27:04;;;;;;;1.35;0.45;;;5.90;99.90;;;;;;4987840;28;20045;-79
2021/01/23 12:29:30;;;;;;;2.25;0.77;;;6.00;99.90;;;;;;4986692;28;20033;-78
2021/01/23 12:32:01;;;;;;;1.10;0.60;;;6.10;99.90;;;;;;4987188;28;20038;-77
2021/01/23 12:34:26;;;;;;;3.10;0.70;;;5.90;99.90;;;;;;4986920;28;20162;-82
2021/01/23 12:36:52;;;;;;;1.55;0.60;;;6.00;99.90;;;;;;4987427;28;20218;-78
2021/01/23 12:39:18;;;;;;;1.45;0.50;;;6.00;99.90;;;;;;4987121;28;20070;-76
2021/01/23 12:41:44;;;;;;;1.67;0.82;;;6.10;99.90;;;;;;4986763;28;20074;-78
2021/01/23 12:44:09;;;;;;;1.65;0.70;;;6.10;99.90;;;;;;4986270;28;20034;-78
2021/01/23 12:46:35;;;;;;;1.45;0.60;;;6.00;99.90;;;;;;4986670;28;20092;-78
2021/01/23 12:49:00;;;;;;;1.60;0.57;;;5.90;99.90;;;;;;4986571;28;20366;-80
2021/01/23 12:51:26;;;;;;;1.60;0.60;;;6.00;99.90;;;;;;4986970;28;20030;-77
2021/01/23 12:53:52;;;;;;;1.35;0.50;;;6.10;99.90;;;;;;4986622;28;20081;-77
2021/01/23 12:56:18;;;;;;;1.85;0.60;;;6.30;99.90;;;;;;4986944;28;20033;-78
2021/01/23 12:58:44;;;;;;;7.82;3.28;;;6.30;99.90;;;;;;4986227;28;20096;-83
2021/01/23 13:01:10;;;;;;;4.55;1.92;;;6.20;99.90;;;;;;4986763;28;20045;-78
2021/01/23 13:03:36;;;;;;;2.47;0.95;;;6.20;99.90;;;;;;4986628;28;20026;-78